createdAt,value
2019-02-12T00:00:32.027Z,5.27
2019-02-12T00:03:00.597Z,6.63
2019-02-12T00:05:29.006Z,5.83
2019-02-12T00:07:57.422Z,4.80
2019-02-12T00:10:25.863Z,5.73
2019-02-12T00:12:54.310Z,8.33
2019-02-12T00:15:22.729Z,7.83
2019-02-12T00:17:51.177Z,6.27
2019-02-12T00:20:19.621Z,20.43
2019-02-12T00:22:48.074Z,10.27
2019-02-12T00:25:16.492Z,10.13
2019-02-12T00:27:44.905Z,4.23
2019-02-12T00:30:13.473Z,4.63
2019-02-12T00:32:41.900Z,1.60
2019-02-12T00:35:10.330Z,8.03
2019-02-12T00:37:38.754Z,5.43
2019-02-12T00:40:09.041Z,7.00
2019-02-12T00:42:37.510Z,2.60
2019-02-12T00:45:08.687Z,18.73
2019-02-12T00:47:37.121Z,3.53
2019-02-12T00:50:08.585Z,10.97
2019-02-12T00:52:37.100Z,11.27
2019-02-12T00:55:07.355Z,4.03
2019-02-12T00:57:35.794Z,9.50
2019-02-12T01:00:07.282Z,7.93
2019-02-12T01:02:35.722Z,13.83
2019-02-12T01:05:04.502Z,6.00
2019-02-12T01:07:33.030Z,4.53
2019-02-12T01:10:01.459Z,9.23
2019-02-12T01:12:29.858Z,8.13
2019-02-12T01:14:58.329Z,18.23
2019-02-12T01:17:26.758Z,7.00
2019-02-12T01:19:55.177Z,8.60
2019-02-12T01:22:23.616Z,2.03
2019-02-12T01:24:52.034Z,8.80
2019-02-12T01:27:20.479Z,12.00
2019-02-12T01:29:48.914Z,11.83
2019-02-12T01:32:17.347Z,15.47
2019-02-12T01:34:45.777Z,4.67
2019-02-12T01:37:14.208Z,6.17
2019-02-12T01:39:42.806Z,13.83
2019-02-12T01:42:11.226Z,5.37
2019-02-12T01:44:39.642Z,7.27
2019-02-12T01:47:08.099Z,5.30
2019-02-12T01:49:36.511Z,8.97
2019-02-12T01:52:04.945Z,4.00
2019-02-12T01:54:33.407Z,11.97
2019-02-12T01:57:01.830Z,8.20
2019-02-12T01:59:30.262Z,11.80
2019-02-12T02:01:58.694Z,15.57
2019-02-12T02:04:27.107Z,17.80
2019-02-12T02:06:55.590Z,16.60
2019-02-12T02:09:24.061Z,9.17
2019-02-12T02:11:52.482Z,11.90
2019-02-12T02:14:20.938Z,13.63
2019-02-12T02:16:49.370Z,13.90
2019-02-12T02:19:17.791Z,11.30
2019-02-12T02:21:46.242Z,7.40
2019-02-12T02:24:14.662Z,7.30
2019-02-12T02:26:43.136Z,11.43
2019-02-12T02:29:11.591Z,15.53
2019-02-12T02:31:40.016Z,11.13
2019-02-12T02:34:08.459Z,4.83
2019-02-12T02:36:36.882Z,6.60
2019-02-12T02:39:06.262Z,4.73
2019-02-12T02:41:34.722Z,17.60
2019-02-12T02:44:03.158Z,15.63
2019-02-12T02:46:31.578Z,13.33
2019-02-12T02:49:00.009Z,19.23
2019-02-12T02:51:28.461Z,12.80
2019-02-12T02:53:56.891Z,15.33
2019-02-12T02:56:25.314Z,6.07
2019-02-12T02:58:53.768Z,6.20
2019-02-12T03:01:22.199Z,13.67
2019-02-12T03:03:50.613Z,9.80
2019-02-12T03:06:19.057Z,14.90
2019-02-12T03:08:47.469Z,6.23
2019-02-12T03:11:15.906Z,8.03
2019-02-12T03:13:44.333Z,11.43
2019-02-12T03:16:12.776Z,5.80
2019-02-12T03:18:41.191Z,6.57
2019-02-12T03:21:09.627Z,4.40
2019-02-12T03:23:38.050Z,13.40
2019-02-12T03:26:06.529Z,3.80
2019-02-12T03:28:34.984Z,9.00
2019-02-12T03:31:03.425Z,8.60
2019-02-12T03:33:31.839Z,5.13
2019-02-12T03:36:00.270Z,16.07
2019-02-12T03:38:28.695Z,16.80
2019-02-12T03:40:57.144Z,5.40
2019-02-12T03:43:25.561Z,11.50
2019-02-12T03:45:54.002Z,11.87
2019-02-12T03:48:22.418Z,5.87
2019-02-12T03:50:50.861Z,12.80
2019-02-12T03:53:19.290Z,9.37
2019-02-12T03:55:47.726Z,6.63
2019-02-12T03:58:16.137Z,13.83
2019-02-12T04:00:44.594Z,16.73
2019-02-12T04:03:13.101Z,9.90
2019-02-12T04:05:41.852Z,4.10
2019-02-12T04:08:10.271Z,7.70
2019-02-12T04:10:38.717Z,11.83
2019-02-12T04:13:07.129Z,12.47
2019-02-12T04:15:35.638Z,6.80
2019-02-12T04:18:04.057Z,5.80
2019-02-12T04:20:32.499Z,17.10
2019-02-12T04:23:00.926Z,13.30
2019-02-12T04:25:29.363Z,13.67
2019-02-12T04:27:57.795Z,7.80
2019-02-12T04:30:26.247Z,11.33
2019-02-12T04:32:54.665Z,10.60
2019-02-12T04:35:23.118Z,10.23
2019-02-12T04:37:51.537Z,9.87
2019-02-12T04:40:19.979Z,6.63
2019-02-12T04:42:48.407Z,8.43
2019-02-12T04:45:16.858Z,4.50
2019-02-12T04:47:45.278Z,15.97
2019-02-12T04:50:15.093Z,9.43
2019-02-12T04:52:43.560Z,3.93
2019-02-12T04:55:12.480Z,30.00
2019-02-12T04:57:40.904Z,3.63
2019-02-12T05:00:14.558Z,5.60
2019-02-12T05:02:42.980Z,2.73
2019-02-12T05:05:11.395Z,22.33
2019-02-12T05:07:39.838Z,19.27
2019-02-12T05:10:10.974Z,11.20
2019-02-12T05:12:39.420Z,18.23
2019-02-12T05:15:09.481Z,8.23
2019-02-12T05:17:37.918Z,14.27
2019-02-12T05:20:14.098Z,13.47
2019-02-12T05:22:43.816Z,6.60
2019-02-12T05:25:12.715Z,6.93
2019-02-12T05:27:41.211Z,3.00
2019-02-12T05:30:11.693Z,5.50
2019-02-12T05:32:40.179Z,12.87
2019-02-12T05:35:08.600Z,14.00
2019-02-12T05:37:37.056Z,11.83
2019-02-12T05:40:10.035Z,12.63
2019-02-12T05:42:38.494Z,21.13
2019-02-12T05:45:13.973Z,8.33
2019-02-12T05:47:42.410Z,10.73
2019-02-12T05:50:15.337Z,18.07
2019-02-12T05:52:53.358Z,6.27
2019-02-12T05:55:13.936Z,5.40
2019-02-12T05:57:42.355Z,14.07
2019-02-12T06:00:14.654Z,18.97
2019-02-12T06:02:43.058Z,11.83
2019-02-12T06:05:12.372Z,16.27
2019-02-12T06:07:40.809Z,11.63
2019-02-12T06:10:10.997Z,5.10
2019-02-12T06:12:39.419Z,7.80
2019-02-12T06:15:07.832Z,6.10
2019-02-12T06:17:36.275Z,15.97
2019-02-12T06:20:06.358Z,13.80
2019-02-12T06:22:34.785Z,9.00
2019-02-12T06:25:03.687Z,7.03
2019-02-12T06:27:32.130Z,9.27
2019-02-12T06:30:00.549Z,4.73
2019-02-12T06:32:28.986Z,6.50
2019-02-12T06:34:57.503Z,13.70
2019-02-12T06:37:26.016Z,4.30
2019-02-12T06:39:54.444Z,2.90
2019-02-12T06:42:22.906Z,12.53
2019-02-12T06:44:51.327Z,10.77
2019-02-12T06:47:19.749Z,16.80
2019-02-12T06:49:48.290Z,11.13
2019-02-12T06:52:16.723Z,2.93
2019-02-12T06:54:45.134Z,4.87
2019-02-12T06:57:13.582Z,12.30
2019-02-12T06:59:41.995Z,8.83
2019-02-12T07:02:46.490Z,4.33
2019-02-12T07:05:14.922Z,4.20
2019-02-12T07:08:22.555Z,12.07
2019-02-12T07:10:56.886Z,3.60
2019-02-12T07:13:37.289Z,20.37
2019-02-12T07:16:08.800Z,2.67
2019-02-12T07:18:56.958Z,7.37
2019-02-12T07:21:39.585Z,2.60
2019-02-12T07:24:16.792Z,12.13
2019-02-12T07:26:50.807Z,10.77
2019-02-12T07:29:22.335Z,4.63
2019-02-12T07:32:14.623Z,3.90
2019-02-12T07:34:48.777Z,31.57
2019-02-12T07:37:20.281Z,3.13
2019-02-12T07:40:00.371Z,21.70
2019-02-12T07:42:43.685Z,11.03
2019-02-12T07:45:32.942Z,7.20
2019-02-12T07:48:07.339Z,19.80
2019-02-12T07:50:50.847Z,13.67
2019-02-12T07:53:30.769Z,9.03
2019-02-12T07:55:58.469Z,11.03
2019-02-12T07:58:44.950Z,7.53
2019-02-12T08:01:16.473Z,23.23
2019-02-12T08:04:04.543Z,5.90
2019-02-12T08:06:44.765Z,8.57
2019-02-12T08:09:49.110Z,3.13
2019-02-12T08:12:23.179Z,13.17
2019-02-12T08:15:00.597Z,5.50
2019-02-12T08:17:32.132Z,12.50
2019-02-12T08:20:23.150Z,4.93
2019-02-12T08:23:17.221Z,24.07
2019-02-12T08:25:57.585Z,6.57
2019-02-12T08:28:44.132Z,13.80
2019-02-12T08:31:15.626Z,11.13
2019-02-12T08:33:58.913Z,6.00
2019-02-12T08:36:36.416Z,10.33
2019-02-12T08:39:10.970Z,8.87
2019-02-12T08:41:58.701Z,8.70
2019-02-12T08:44:38.819Z,6.00
2019-02-12T08:47:34.344Z,11.60
2019-02-12T08:50:05.858Z,14.07
2019-02-12T08:52:51.989Z,11.40
2019-02-12T08:55:39.979Z,16.30
2019-02-12T08:58:26.425Z,7.77
2019-02-12T09:01:03.618Z,8.33
2019-02-12T09:04:07.936Z,7.03
2019-02-12T09:06:48.090Z,9.83
2019-02-12T09:09:22.508Z,3.70
2019-02-12T09:12:05.922Z,20.37
2019-02-12T09:14:37.472Z,7.97
2019-02-12T09:17:11.840Z,3.20
2019-02-12T09:19:51.735Z,8.30
2019-02-12T09:22:32.102Z,9.40
2019-02-12T09:25:06.546Z,5.40
2019-02-12T09:27:49.587Z,10.13
2019-02-12T09:30:35.264Z,7.60
2019-02-12T09:33:33.487Z,11.87
2019-02-12T09:36:22.935Z,14.03
2019-02-12T09:39:08.586Z,8.97
2019-02-12T09:41:40.082Z,6.40
2019-02-12T09:44:34.173Z,11.53
2019-02-12T09:47:20.323Z,7.40
2019-02-12T09:50:10.897Z,7.63
2019-02-12T09:52:58.645Z,9.87
2019-02-12T09:55:30.166Z,3.40
2019-02-12T09:58:06.789Z,9.00
2019-02-12T10:00:38.641Z,8.90
2019-02-12T10:03:29.313Z,10.20
2019-02-12T10:06:24.554Z,3.77
2019-02-12T10:08:58.688Z,10.33
2019-02-12T10:11:38.945Z,12.67
2019-02-12T10:14:19.078Z,14.63
2019-02-12T10:16:59.144Z,9.87
2019-02-12T10:19:36.108Z,8.00
2019-02-12T10:22:07.649Z,15.00
2019-02-12T10:24:41.909Z,14.33
2019-02-12T10:27:13.427Z,4.30
2019-02-12T10:29:59.782Z,11.60
2019-02-12T10:32:27.156Z,3.23
2019-02-12T10:34:55.595Z,10.53
2019-02-12T10:37:24.038Z,15.53
2019-02-12T10:39:52.477Z,6.10
2019-02-12T10:42:20.913Z,4.53
2019-02-12T10:44:49.340Z,9.13
2019-02-12T10:47:17.777Z,8.20
2019-02-12T10:49:46.213Z,11.00
2019-02-12T10:52:14.628Z,5.40
2019-02-12T10:54:43.054Z,5.80
2019-02-12T10:57:11.480Z,21.30
2019-02-12T10:59:39.927Z,7.73
2019-02-12T11:02:08.342Z,5.53
2019-02-12T11:04:36.781Z,6.20
2019-02-12T11:07:05.190Z,5.30
2019-02-12T11:09:33.623Z,7.23
2019-02-12T11:12:02.045Z,5.20
2019-02-12T11:14:30.480Z,7.87
2019-02-12T11:16:58.911Z,29.73
2019-02-12T11:19:27.348Z,9.80
2019-02-12T11:21:55.825Z,10.83
2019-02-12T11:24:24.517Z,9.53
2019-02-12T11:26:52.933Z,8.20
2019-02-12T11:29:21.402Z,7.97
2019-02-12T11:31:49.822Z,6.63
2019-02-12T11:34:18.263Z,4.97
2019-02-12T11:36:46.689Z,15.50
2019-02-12T11:39:15.103Z,8.60
2019-02-12T11:41:43.549Z,6.27
2019-02-12T11:44:11.961Z,5.23
2019-02-12T11:46:40.418Z,14.57
2019-02-12T11:49:08.838Z,5.70
2019-02-12T11:51:37.302Z,9.80
2019-02-12T11:54:05.725Z,7.50
2019-02-12T11:56:35.109Z,13.03
2019-02-12T11:59:03.534Z,6.50
2019-02-12T12:01:31.973Z,9.73
2019-02-12T12:04:00.410Z,6.37
2019-02-12T12:06:28.859Z,11.70
2019-02-12T12:08:57.279Z,22.00
2019-02-12T12:11:25.718Z,7.10
2019-02-12T12:13:54.134Z,9.10
2019-02-12T12:16:22.593Z,10.90
2019-02-12T12:18:51.086Z,9.40
2019-02-12T12:21:19.553Z,5.03
2019-02-12T12:23:48.022Z,8.00
2019-02-12T12:26:16.450Z,6.20
2019-02-12T12:28:44.890Z,7.63
2019-02-12T12:31:13.301Z,11.90
2019-02-12T12:33:41.750Z,11.27
2019-02-12T12:36:10.244Z,4.37
2019-02-12T12:38:38.692Z,22.53
2019-02-12T12:41:07.106Z,17.07
2019-02-12T12:43:35.536Z,8.13
2019-02-12T12:46:04.085Z,8.83
2019-02-12T12:48:32.538Z,8.63
2019-02-12T12:51:00.954Z,9.83
2019-02-12T12:53:29.386Z,6.60
2019-02-12T12:55:57.795Z,14.07
2019-02-12T12:58:26.244Z,8.77
2019-02-12T13:00:56.222Z,14.87
2019-02-12T13:03:24.786Z,8.43
2019-02-12T13:05:53.199Z,9.30
2019-02-12T13:08:21.654Z,8.00
2019-02-12T13:10:50.147Z,10.13
2019-02-12T13:13:18.594Z,7.90
2019-02-12T13:15:47.041Z,15.37
2019-02-12T13:18:15.459Z,15.47
2019-02-12T13:20:43.877Z,7.83
2019-02-12T13:23:12.330Z,9.83
2019-02-12T13:25:40.750Z,9.50
2019-02-12T13:28:09.204Z,11.57
2019-02-12T13:30:38.534Z,13.70
2019-02-12T13:33:07.037Z,10.50
2019-02-12T13:35:35.489Z,9.10
2019-02-12T13:38:03.998Z,12.00
2019-02-12T13:40:32.478Z,7.63
2019-02-12T13:43:00.912Z,17.10
2019-02-12T13:45:29.330Z,13.60
2019-02-12T13:47:57.761Z,13.07
2019-02-12T13:50:26.177Z,13.27
2019-02-12T13:52:54.591Z,10.53
2019-02-12T13:55:23.121Z,18.40
2019-02-12T13:57:51.537Z,9.03
2019-02-12T14:00:19.970Z,19.97
2019-02-12T14:02:48.420Z,11.50
2019-02-12T14:05:19.849Z,13.93
2019-02-12T14:07:48.291Z,11.63
2019-02-12T14:10:16.758Z,11.10
2019-02-12T14:12:45.168Z,12.60
2019-02-12T14:15:14.121Z,13.70
2019-02-12T14:17:42.703Z,16.13
2019-02-12T14:20:15.349Z,20.53
2019-02-12T14:22:43.769Z,13.70
2019-02-12T14:25:13.552Z,13.03
2019-02-12T14:27:41.973Z,9.80
2019-02-12T14:30:16.403Z,15.13
2019-02-12T14:32:44.883Z,21.17
2019-02-12T14:35:13.406Z,7.63
2019-02-12T14:37:41.823Z,13.07
2019-02-12T14:40:14.726Z,6.23
2019-02-12T14:42:43.227Z,12.00
2019-02-12T14:45:14.122Z,16.87
2019-02-12T14:47:42.522Z,17.50
2019-02-12T14:50:12.916Z,11.40
2019-02-12T14:52:41.327Z,8.40
2019-02-12T14:55:09.775Z,9.83
2019-02-12T14:57:38.187Z,14.97
2019-02-12T15:00:10.519Z,12.13
2019-02-12T15:02:38.926Z,11.90
2019-02-12T15:05:07.519Z,16.83
2019-02-12T15:07:35.970Z,20.30
2019-02-12T15:10:06.909Z,15.60
2019-02-12T15:12:35.336Z,20.20
2019-02-12T15:15:04.285Z,13.13
2019-02-12T15:17:32.706Z,9.13
2019-02-12T15:20:01.125Z,18.50
2019-02-12T15:22:29.598Z,10.30
2019-02-12T15:24:58.006Z,15.13
2019-02-12T15:27:26.421Z,21.93
2019-02-12T15:29:54.882Z,15.83
2019-02-12T15:32:23.323Z,13.63
2019-02-12T15:34:51.738Z,21.67
2019-02-12T15:37:20.195Z,12.53
2019-02-12T15:39:48.618Z,16.27
2019-02-12T15:42:17.056Z,16.27
2019-02-12T15:44:45.478Z,15.17
2019-02-12T15:47:13.949Z,13.83
2019-02-12T15:49:42.373Z,9.97
2019-02-12T15:52:10.828Z,10.50
2019-02-12T15:54:39.262Z,15.23
2019-02-12T15:57:07.723Z,14.70
2019-02-12T15:59:36.159Z,13.13
2019-02-12T16:02:04.589Z,11.80
2019-02-12T16:04:33.012Z,17.40
2019-02-12T16:07:01.967Z,11.37
2019-02-12T16:09:31.255Z,8.03
2019-02-12T16:12:02.100Z,12.03
2019-02-12T16:14:30.783Z,10.57
2019-02-12T16:16:59.204Z,9.80
2019-02-12T16:19:28.092Z,16.23
2019-02-12T16:21:57.792Z,12.57
2019-02-12T16:24:26.325Z,14.60
2019-02-12T16:26:54.757Z,11.03
2019-02-12T16:29:23.196Z,16.73
2019-02-12T16:31:51.651Z,27.20
2019-02-12T16:34:20.185Z,13.20
2019-02-12T16:36:48.662Z,13.97
2019-02-12T16:39:17.105Z,16.73
2019-02-12T16:41:45.534Z,14.67
2019-02-12T16:44:13.955Z,20.20
2019-02-12T16:46:45.275Z,20.93
2019-02-12T16:49:14.824Z,10.87
2019-02-12T16:51:43.350Z,19.23
2019-02-12T16:54:11.773Z,16.60
2019-02-12T16:56:40.500Z,22.67
2019-02-12T16:59:08.932Z,17.57
2019-02-12T17:01:37.358Z,19.90
2019-02-12T17:04:05.777Z,19.80
2019-02-12T17:06:34.218Z,15.27
2019-02-12T17:09:03.709Z,28.80
2019-02-12T17:11:32.146Z,19.03
2019-02-12T17:14:00.558Z,24.03
2019-02-12T17:16:29.001Z,26.23
2019-02-12T17:18:57.523Z,17.60
2019-02-12T17:21:25.948Z,25.23
2019-02-12T17:23:54.374Z,20.20
2019-02-12T17:26:22.802Z,36.97
2019-02-12T17:28:51.229Z,21.33
2019-02-12T17:31:19.663Z,20.73
2019-02-12T17:33:48.095Z,16.10
2019-02-12T17:36:16.533Z,25.40
2019-02-12T17:38:44.978Z,20.80
2019-02-12T17:41:13.411Z,25.90
2019-02-12T17:43:41.868Z,14.20
2019-02-12T17:46:10.286Z,16.50
2019-02-12T17:48:39.610Z,31.20
2019-02-12T17:51:08.026Z,22.43
2019-02-12T17:53:36.471Z,19.10
2019-02-12T17:56:04.904Z,23.70
2019-02-12T17:58:33.386Z,28.43
2019-02-12T18:01:01.835Z,25.27
2019-02-12T18:03:30.306Z,27.90
2019-02-12T18:05:58.744Z,38.07
2019-02-12T18:08:27.203Z,22.03
2019-02-12T18:10:55.625Z,21.27
2019-02-12T18:13:24.939Z,32.00
2019-02-12T18:15:53.393Z,28.67
2019-02-12T18:18:21.848Z,39.50
2019-02-12T18:20:50.302Z,40.63
2019-02-12T18:23:18.705Z,40.83
2019-02-12T18:25:47.134Z,43.40
2019-02-12T18:28:15.563Z,30.27
2019-02-12T18:30:44.027Z,29.37
2019-02-12T18:33:12.441Z,27.30
2019-02-12T18:35:40.881Z,37.73
2019-02-12T18:38:09.294Z,28.73
2019-02-12T18:40:37.811Z,37.27
2019-02-12T18:43:06.315Z,24.17
2019-02-12T18:45:34.768Z,33.70
2019-02-12T18:48:03.182Z,31.27
2019-02-12T18:50:31.645Z,33.47
2019-02-12T18:53:00.051Z,29.43
2019-02-12T18:55:28.497Z,28.40
2019-02-12T18:57:56.918Z,27.57
2019-02-12T19:00:25.372Z,33.80
2019-02-12T19:02:53.786Z,22.43
2019-02-12T19:05:22.233Z,24.23
2019-02-12T19:07:50.678Z,25.80
2019-02-12T19:10:19.277Z,32.63
2019-02-12T19:12:47.713Z,29.60
2019-02-12T19:15:18.087Z,34.33
2019-02-12T19:17:49.905Z,33.20
2019-02-12T19:20:18.343Z,48.70
2019-02-12T19:22:47.015Z,38.60
2019-02-12T19:25:15.457Z,30.03
2019-02-12T19:27:43.873Z,28.93
2019-02-12T19:30:16.165Z,26.70
2019-02-12T19:32:44.774Z,26.80
2019-02-12T19:35:13.219Z,30.57
2019-02-12T19:37:41.641Z,30.93
2019-02-12T19:40:11.535Z,27.10
2019-02-12T19:42:39.951Z,27.73
2019-02-12T19:45:16.121Z,32.07
2019-02-12T19:47:44.554Z,31.00
2019-02-12T19:50:13.115Z,41.73
2019-02-12T19:52:41.532Z,27.83
2019-02-12T19:55:10.390Z,25.57
2019-02-12T19:57:38.838Z,25.90
2019-02-12T20:00:17.247Z,27.50
2019-02-12T20:02:45.726Z,23.20
2019-02-12T20:05:14.186Z,23.90
2019-02-12T20:07:42.621Z,25.67
2019-02-12T20:10:14.690Z,33.57
2019-02-12T20:12:43.151Z,21.80
2019-02-12T20:15:13.985Z,22.57
2019-02-12T20:17:42.454Z,23.03
2019-02-12T20:20:12.227Z,29.93
2019-02-12T20:22:40.665Z,24.73
2019-02-12T20:25:10.563Z,21.50
2019-02-12T20:27:39.002Z,23.23
2019-02-12T20:30:10.366Z,24.17
2019-02-12T20:32:38.814Z,20.13
2019-02-12T20:35:09.989Z,29.83
2019-02-12T20:37:38.433Z,24.00
2019-02-12T20:40:09.381Z,26.33
2019-02-12T20:42:37.931Z,27.80
2019-02-12T20:45:09.689Z,26.50
2019-02-12T20:47:38.113Z,27.00
2019-02-12T20:50:09.562Z,29.73
2019-02-12T20:52:37.987Z,39.03
2019-02-12T20:55:07.584Z,36.57
2019-02-12T20:57:36.009Z,22.63
2019-02-12T21:00:10.521Z,23.53
2019-02-12T21:02:38.946Z,23.87
2019-02-12T21:05:10.032Z,28.67
2019-02-12T21:07:38.451Z,28.70
2019-02-12T21:10:09.978Z,25.27
2019-02-12T21:12:38.392Z,20.50
2019-02-12T21:15:10.143Z,24.20
2019-02-12T21:17:38.561Z,26.63
2019-02-12T21:20:10.604Z,18.20
2019-02-12T21:22:40.294Z,23.13
2019-02-12T21:25:10.788Z,24.63
2019-02-12T21:27:39.207Z,15.90
2019-02-12T21:30:13.029Z,16.00
2019-02-12T21:32:41.489Z,23.37
2019-02-12T21:35:12.061Z,20.43
2019-02-12T21:37:40.499Z,21.53
2019-02-12T21:40:17.646Z,17.97
2019-02-12T21:42:46.070Z,14.83
2019-02-12T21:45:14.490Z,19.23
2019-02-12T21:47:42.923Z,13.90
2019-02-12T21:50:12.897Z,16.60
2019-02-12T21:52:41.343Z,17.53
2019-02-12T21:55:15.814Z,15.00
2019-02-12T21:57:44.248Z,12.97
2019-02-12T22:00:15.438Z,49.27
2019-02-12T22:02:43.893Z,15.10
2019-02-12T22:05:14.418Z,15.60
2019-02-12T22:07:42.868Z,19.10
2019-02-12T22:10:16.947Z,15.77
2019-02-12T22:12:45.453Z,18.93
2019-02-12T22:15:13.874Z,16.53
2019-02-12T22:17:42.657Z,20.57
2019-02-12T22:20:15.935Z,33.77
2019-02-12T22:22:44.399Z,23.00
2019-02-12T22:25:12.871Z,18.37
2019-02-12T22:27:41.316Z,15.83
2019-02-12T22:30:21.073Z,22.10
2019-02-12T22:32:49.509Z,21.37
2019-02-12T22:35:17.940Z,23.83
2019-02-12T22:37:46.368Z,25.83
2019-02-12T22:40:16.500Z,19.87
2019-02-12T22:42:44.938Z,24.63
2019-02-12T22:45:16.068Z,33.63
2019-02-12T22:47:44.514Z,26.87
2019-02-12T22:50:13.369Z,28.63
2019-02-12T22:52:41.828Z,29.47
2019-02-12T22:55:10.978Z,18.37
2019-02-12T22:57:39.451Z,28.43
2019-02-12T23:00:49.792Z,27.00
2019-02-12T23:03:18.778Z,18.77
2019-02-12T23:05:47.186Z,27.83
2019-02-12T23:08:15.630Z,21.57
2019-02-12T23:10:44.059Z,16.30
2019-02-12T23:13:12.574Z,22.40
2019-02-12T23:15:41.903Z,26.77
2019-02-12T23:18:10.343Z,19.23
2019-02-12T23:20:38.762Z,28.10
2019-02-12T23:23:07.190Z,15.93
2019-02-12T23:25:35.613Z,25.53
2019-02-12T23:28:04.125Z,25.33
2019-02-12T23:30:32.558Z,22.73
2019-02-12T23:33:01.009Z,19.17
2019-02-12T23:35:29.418Z,28.17
2019-02-12T23:37:57.855Z,23.10
2019-02-12T23:40:26.278Z,19.83
2019-02-12T23:42:54.712Z,25.00
2019-02-12T23:45:23.129Z,20.90
2019-02-12T23:47:51.560Z,22.47
2019-02-12T23:50:19.993Z,20.87
2019-02-12T23:52:48.441Z,18.13
2019-02-12T23:55:16.876Z,26.10
2019-02-12T23:57:45.301Z,22.50
